Time;durP1;ratioP1;P1;durP2;ratioP2;P2;SDS_P1;SDS_P2;PMS_P1;PMS_P2;Temp;Humidity;BMP_temperature;BMP_pressure;BME280_temperature;BME280_humidity;BME280_pressure;Samples;Min_cycle;Max_cycle;Signal;HPM_P1;HPM_P2
2022/07/30 00:00:51;;;;;;;;;;;20.30;64.20;;;;;;5068921;28;19913;-79
2022/07/30 00:03:16;;;;;;;;;;;20.30;64.20;;;;;;5033987;28;19917;-79
2022/07/30 00:05:42;;;;;;;;;;;20.30;64.20;;;;;;5050827;28;20176;-79
2022/07/30 00:08:07;;;;;;;;;;;20.30;64.20;;;;;;5068517;28;19912;-80
2022/07/30 00:10:33;;;;;;;;;;;20.30;64.20;;;;;;5034104;28;20284;-81
2022/07/30 00:12:59;;;;;;;;;;;20.40;64.20;;;;;;5033881;28;19912;-80
2022/07/30 00:15:24;;;;;;;;;;;20.40;64.20;;;;;;5050550;28;19916;-79
2022/07/30 00:17:50;;;;;;;;;;;20.40;64.20;;;;;;5050600;28;20422;-80
2022/07/30 00:20:15;;;;;;;;;;;20.40;64.30;;;;;;5034109;28;19916;-79
2022/07/30 00:22:41;;;;;;;;;;;20.40;64.30;;;;;;5068547;28;19960;-80
2022/07/30 00:25:07;;;;;;;;;;;20.30;64.20;;;;;;5068441;28;19916;-80
2022/07/30 00:27:34;;;;;;;;;;;20.30;64.10;;;;;;5050478;28;19915;-81
2022/07/30 00:30:00;;;;;;;;;;;20.40;64.20;;;;;;5050747;28;19913;-80
2022/07/30 00:32:25;;;;;;;;;;;20.30;64.30;;;;;;5068275;28;20235;-80
2022/07/30 00:34:51;;;;;;;;;;;20.30;64.20;;;;;;5050167;28;19909;-80
2022/07/30 00:37:16;;;;;;;;;;;20.30;64.20;;;;;;5067958;28;19979;-79
2022/07/30 00:39:42;;;;;;;;;;;20.30;64.20;;;;;;5068277;28;19916;-80
2022/07/30 00:42:08;;;;;;;;;;;20.30;64.30;;;;;;5050304;28;20297;-80
2022/07/30 00:44:33;;;;;;;;;;;20.30;64.30;;;;;;5033448;28;19924;-80
2022/07/30 00:46:59;;;;;;;;;;;20.30;64.30;;;;;;5050208;28;19921;-80
2022/07/30 00:49:25;;;;;;;;;;;20.30;64.30;;;;;;5050295;28;20314;-79
2022/07/30 00:51:51;;;;;;;;;;;20.30;64.30;;;;;;5068231;28;19915;-78
2022/07/30 00:54:17;;;;;;;;;;;20.30;64.30;;;;;;5049897;28;19909;-78
2022/07/30 00:56:42;;;;;;;;;;;20.30;64.30;;;;;;5033328;28;19955;-78
2022/07/30 00:59:09;;;;;;;;;;;20.30;64.40;;;;;;5033507;28;20411;-79
2022/07/30 01:01:34;;;;;;;;;;;20.30;64.30;;;;;;5050047;28;19927;-78
2022/07/30 01:04:00;;;;;;;;;;;20.30;64.30;;;;;;5067826;28;20017;-78
2022/07/30 01:06:26;;;;;;;;;;;20.30;64.30;;;;;;5033093;28;19966;-78
2022/07/30 01:08:53;;;;;;;;;;;20.30;64.30;;;;;;5049947;28;19909;-78
2022/07/30 01:11:18;;;;;;;;;;;20.30;64.30;;;;;;5049712;28;19916;-78
2022/07/30 01:13:44;;;;;;;;;;;20.30;64.30;;;;;;5049463;28;19913;-78
2022/07/30 01:16:10;;;;;;;;;;;20.30;64.30;;;;;;5067731;28;19963;-78
2022/07/30 01:21:27;;;;;;;;;;;20.20;64.30;;;;;;5068033;28;19916;-78
2022/07/30 01:23:55;;;;;;;;;;;20.20;64.30;;;;;;5049554;28;19919;-79
2022/07/30 01:26:21;;;;;;;;;;;20.20;64.30;;;;;;5049482;28;20372;-78
2022/07/30 01:28:52;;;;;;;;;;;20.10;64.30;;;;;;5067632;28;19954;-78
2022/07/30 01:31:18;;;;;;;;;;;20.10;64.30;;;;;;5067790;28;20369;-78
2022/07/30 01:33:44;;;;;;;;;;;20.10;64.30;;;;;;5067554;28;19920;-78
2022/07/30 01:36:13;;;;;;;;;;;20.10;64.40;;;;;;5049726;28;20011;-79
2022/07/30 01:38:40;;;;;;;;;;;20.00;64.30;;;;;;5049525;28;20358;-79
2022/07/30 01:41:06;;;;;;;;;;;19.90;64.30;;;;;;5049759;28;19990;-79
2022/07/30 01:43:33;;;;;;;;;;;19.90;64.40;;;;;;5049704;28;19931;-79
2022/07/30 01:46:00;;;;;;;;;;;19.80;64.40;;;;;;5050020;28;20027;-79
2022/07/30 01:48:26;;;;;;;;;;;19.80;64.50;;;;;;5049724;28;19913;-78
2022/07/30 01:50:53;;;;;;;;;;;19.80;64.50;;;;;;5049657;28;19912;-78
2022/07/30 01:53:25;;;;;;;;;;;19.80;64.60;;;;;;5049437;28;19959;-78
2022/07/30 01:55:53;;;;;;;;;;;19.70;64.50;;;;;;5049564;28;20014;-79
2022/07/30 01:58:20;;;;;;;;;;;19.70;64.50;;;;;;5049433;28;19915;-79
2022/07/30 02:00:47;;;;;;;;;;;19.70;64.60;;;;;;5049468;28;19908;-79
2022/07/30 02:03:13;;;;;;;;;;;19.70;64.60;;;;;;5067279;28;19912;-79
2022/07/30 02:05:40;;;;;;;;;;;19.60;64.50;;;;;;5033128;28;19919;-79
2022/07/30 02:08:15;;;;;;;;;;;19.60;64.50;;;;;;5053607;28;20576;-79
2022/07/30 02:10:40;;;;;;;;;;;19.60;64.50;;;;;;5053214;28;19948;-79
2022/07/30 02:13:06;;;;;;;;;;;19.60;64.50;;;;;;5052978;28;19954;-79
2022/07/30 02:15:48;;;;;;;;;;;19.50;64.50;;;;;;5053159;28;19908;-79
2022/07/30 02:18:21;;;;;;;;;;;19.60;64.60;;;;;;5053094;28;20356;-79
2022/07/30 02:20:53;;;;;;;;;;;19.60;64.60;;;;;;5070987;28;19908;-79
2022/07/30 02:23:18;;;;;;;;;;;19.60;64.60;;;;;;5053004;28;19917;-79
2022/07/30 02:25:48;;;;;;;;;;;19.60;64.60;;;;;;5052979;28;20352;-79
2022/07/30 02:28:14;;;;;;;;;;;19.60;64.50;;;;;;5053205;28;19929;-79
2022/07/30 02:30:43;;;;;;;;;;;19.60;64.60;;;;;;5052988;28;20440;-79
2022/07/30 02:33:12;;;;;;;;;;;19.50;64.50;;;;;;5070722;28;19908;-79
2022/07/30 02:35:38;;;;;;;;;;;19.50;64.60;;;;;;5052847;28;20030;-79
2022/07/30 02:38:04;;;;;;;;;;;19.40;64.60;;;;;;5052567;28;19969;-80
2022/07/30 02:40:30;;;;;;;;;;;19.40;64.60;;;;;;5036095;28;20009;-80
2022/07/30 02:42:56;;;;;;;;;;;19.40;64.60;;;;;;5035855;28;20399;-80
2022/07/30 02:45:23;;;;;;;;;;;19.30;64.60;;;;;;5052567;28;19928;-80
2022/07/30 02:47:50;;;;;;;;;;;19.30;64.70;;;;;;5070618;28;20088;-80
2022/07/30 02:50:16;;;;;;;;;;;19.30;64.70;;;;;;5052577;28;20005;-79
2022/07/30 02:52:43;;;;;;;;;;;19.30;64.70;;;;;;5052346;28;20099;-79
2022/07/30 02:55:10;;;;;;;;;;;19.30;64.70;;;;;;5052444;28;19909;-80
2022/07/30 02:57:36;;;;;;;;;;;19.30;64.70;;;;;;5052385;28;19909;-79
2022/07/30 03:00:03;;;;;;;;;;;19.30;64.70;;;;;;5035672;28;19923;-79
2022/07/30 03:02:30;;;;;;;;;;;19.30;64.70;;;;;;5052239;28;20253;-79
2022/07/30 03:04:57;;;;;;;;;;;19.20;64.70;;;;;;5051985;28;19978;-79
2022/07/30 03:07:23;;;;;;;;;;;19.20;64.70;;;;;;5070161;28;20118;-79
2022/07/30 03:09:50;;;;;;;;;;;19.30;64.80;;;;;;5052174;28;19908;-80
2022/07/30 03:12:15;;;;;;;;;;;19.20;64.80;;;;;;5052208;28;19913;-79
2022/07/30 03:14:42;;;;;;;;;;;19.30;64.80;;;;;;5051912;28;20198;-79
2022/07/30 03:17:08;;;;;;;;;;;19.20;64.80;;;;;;5051892;28;20381;-79
2022/07/30 03:19:36;;;;;;;;;;;19.30;64.80;;;;;;5052226;28;19970;-79
2022/07/30 03:22:02;;;;;;;;;;;19.30;64.80;;;;;;5051762;28;20292;-80
2022/07/30 03:24:28;;;;;;;;;;;19.30;64.70;;;;;;5069633;28;19912;-80
2022/07/30 03:26:55;;;;;;;;;;;19.30;64.80;;;;;;5051645;28;19923;-79
2022/07/30 03:29:21;;;;;;;;;;;19.30;64.80;;;;;;5051816;28;19908;-79
2022/07/30 03:31:47;;;;;;;;;;;19.30;64.80;;;;;;5051768;28;19915;-79
2022/07/30 03:34:13;;;;;;;;;;;19.30;64.80;;;;;;5051936;28;19928;-79
2022/07/30 03:36:40;;;;;;;;;;;19.40;64.90;;;;;;5069379;28;19928;-79
2022/07/30 03:39:06;;;;;;;;;;;19.30;64.80;;;;;;5069555;28;19924;-80
2022/07/30 03:41:31;;;;;;;;;;;19.30;64.80;;;;;;5051647;28;20356;-80
2022/07/30 03:43:57;;;;;;;;;;;19.30;64.80;;;;;;5034715;28;19917;-79
2022/07/30 03:46:24;;;;;;;;;;;19.20;64.70;;;;;;5051509;28;19917;-79
2022/07/30 03:48:50;;;;;;;;;;;19.20;64.70;;;;;;5035082;28;20001;-79
2022/07/30 03:51:16;;;;;;;;;;;19.10;64.80;;;;;;5051413;28;20394;-78
2022/07/30 03:53:42;;;;;;;;;;;19.10;64.80;;;;;;5051478;28;19912;-79
2022/07/30 03:56:08;;;;;;;;;;;19.00;64.80;;;;;;5034815;28;19912;-79
2022/07/30 03:58:35;;;;;;;;;;;18.90;64.80;;;;;;5051435;28;19920;-79
2022/07/30 04:01:01;;;;;;;;;;;18.90;64.90;;;;;;5051412;28;20295;-79
2022/07/30 04:03:28;;;;;;;;;;;18.90;65.00;;;;;;5068962;28;19912;-79
2022/07/30 04:05:53;;;;;;;;;;;18.80;64.90;;;;;;5069126;28;20330;-79
2022/07/30 04:08:19;;;;;;;;;;;18.90;65.00;;;;;;5069064;28;19908;-79
2022/07/30 04:10:45;;;;;;;;;;;18.80;65.00;;;;;;5051120;28;19961;-79
2022/07/30 04:13:10;;;;;;;;;;;18.80;65.00;;;;;;5050934;28;19940;-79
2022/07/30 04:15:55;;;;;;;;;;;18.80;65.00;;;;;;5034528;28;19923;-79
2022/07/30 04:18:21;;;;;;;;;;;18.80;65.00;;;;;;5068881;28;19909;-79
2022/07/30 04:20:47;;;;;;;;;;;18.80;65.00;;;;;;5050864;28;19908;-80
2022/07/30 04:23:14;;;;;;;;;;;18.80;65.00;;;;;;5068757;28;20434;-80
2022/07/30 04:25:40;;;;;;;;;;;18.90;65.00;;;;;;5034439;28;20011;-80
2022/07/30 04:28:07;;;;;;;;;;;18.90;65.00;;;;;;5068711;28;19966;-79
2022/07/30 04:30:33;;;;;;;;;;;18.90;65.00;;;;;;5068333;28;20369;-79
2022/07/30 04:33:00;;;;;;;;;;;18.90;65.00;;;;;;5034065;28;19918;-79
2022/07/30 04:35:29;;;;;;;;;;;19.00;65.10;;;;;;5051342;28;19908;-79
2022/07/30 04:37:55;;;;;;;;;;;19.00;65.10;;;;;;5033887;28;20383;-80
2022/07/30 04:40:20;;;;;;;;;;;19.00;65.00;;;;;;5068680;28;19908;-79
2022/07/30 04:42:46;;;;;;;;;;;19.00;65.00;;;;;;5050277;28;19999;-79
2022/07/30 04:45:11;;;;;;;;;;;19.00;65.00;;;;;;5050543;28;19912;-79
2022/07/30 04:47:37;;;;;;;;;;;19.10;65.00;;;;;;5050553;28;19916;-79
2022/07/30 04:50:05;;;;;;;;;;;19.10;65.00;;;;;;5050624;28;19923;-79
2022/07/30 04:52:31;;;;;;;;;;;19.10;65.00;;;;;;5050316;28;19913;-79
2022/07/30 04:55:01;;;;;;;;;;;19.10;65.10;;;;;;5068971;28;19921;-79
2022/07/30 04:57:27;;;;;;;;;;;19.10;65.10;;;;;;5068378;28;19974;-79
2022/07/30 04:59:53;;;;;;;;;;;19.10;65.00;;;;;;5068468;28;19922;-79
2022/07/30 05:02:19;;;;;;;;;;;19.10;65.10;;;;;;5033676;28;20305;-79
2022/07/30 05:04:46;;;;;;;;;;;19.10;65.10;;;;;;5068528;28;19935;-79
2022/07/30 05:07:13;;;;;;;;;;;19.10;65.10;;;;;;5050410;28;19909;-79
2022/07/30 05:09:39;;;;;;;;;;;19.10;65.10;;;;;;5034026;28;19917;-79
2022/07/30 05:12:04;;;;;;;;;;;19.00;65.10;;;;;;5050124;28;20380;-79
2022/07/30 05:14:30;;;;;;;;;;;19.00;65.10;;;;;;5050085;28;19958;-79
2022/07/30 05:16:56;;;;;;;;;;;19.10;65.20;;;;;;5068227;28;19916;-79
2022/07/30 05:19:22;;;;;;;;;;;19.00;65.10;;;;;;5068241;28;20364;-79
2022/07/30 05:21:48;;;;;;;;;;;19.00;65.20;;;;;;5050061;28;19908;-79
2022/07/30 05:24:13;;;;;;;;;;;19.00;65.10;;;;;;5067888;28;19947;-79
2022/07/30 05:26:39;;;;;;;;;;;19.10;65.20;;;;;;5067881;28;19953;-79
2022/07/30 05:29:05;;;;;;;;;;;19.10;65.20;;;;;;5050039;28;20291;-79
2022/07/30 05:31:31;;;;;;;;;;;19.10;65.20;;;;;;5049843;28;19951;-79
2022/07/30 05:33:56;;;;;;;;;;;19.10;65.20;;;;;;5067836;28;19943;-79
2022/07/30 05:36:22;;;;;;;;;;;19.10;65.20;;;;;;5050034;28;19916;-79
2022/07/30 05:38:48;;;;;;;;;;;19.10;65.20;;;;;;5049878;28;20380;-79
2022/07/30 05:41:13;;;;;;;;;;;19.10;65.20;;;;;;5051070;28;19935;-79
2022/07/30 05:43:39;;;;;;;;;;;19.00;65.20;;;;;;5053931;28;19919;-79
2022/07/30 05:46:05;;;;;;;;;;;19.10;65.30;;;;;;5053974;28;19938;-79
2022/07/30 05:48:34;;;;;;;;;;;19.10;65.30;;;;;;5037344;28;20432;-79
2022/07/30 05:50:59;;;;;;;;;;;19.10;65.30;;;;;;5053886;28;20371;-79
2022/07/30 05:53:25;;;;;;;;;;;19.10;65.30;;;;;;5053943;28;20240;-79
2022/07/30 05:55:50;;;;;;;;;;;19.10;65.30;;;;;;5053968;28;19913;-78
2022/07/30 05:58:16;;;;;;;;;;;19.10;65.20;;;;;;5036845;28;19954;-78
2022/07/30 06:00:42;;;;;;;;;;;19.10;65.30;;;;;;5053407;28;19918;-78
2022/07/30 06:03:07;;;;;;;;;;;19.10;65.30;;;;;;5053244;28;20344;-78
2022/07/30 06:05:33;;;;;;;;;;;19.10;65.30;;;;;;5071350;28;19916;-79
2022/07/30 06:07:59;;;;;;;;;;;19.10;65.40;;;;;;5053228;28;19916;-79
2022/07/30 06:10:24;;;;;;;;;;;19.10;65.40;;;;;;5071301;28;19908;-79
2022/07/30 06:12:50;;;;;;;;;;;19.10;65.40;;;;;;5053162;28;20020;-79
2022/07/30 06:15:16;;;;;;;;;;;19.10;65.40;;;;;;5071267;28;20000;-78
2022/07/30 06:17:42;;;;;;;;;;;19.10;65.40;;;;;;5036515;28;19962;-78
2022/07/30 06:20:09;;;;;;;;;;;19.20;65.40;;;;;;5071006;28;19940;-79
2022/07/30 06:22:34;;;;;;;;;;;19.20;65.30;;;;;;5053016;28;19919;-79
2022/07/30 06:25:00;;;;;;;;;;;19.20;65.90;;;;;;5036348;28;20228;-79
2022/07/30 06:27:26;;;;;;;;;;;19.10;65.30;;;;;;5052985;28;19996;-79
2022/07/30 06:29:52;;;;;;;;;;;19.10;65.40;;;;;;5053028;28;19912;-79
2022/07/30 06:32:18;;;;;;;;;;;19.10;65.30;;;;;;5052820;28;20372;-80
2022/07/30 06:34:44;;;;;;;;;;;19.10;65.30;;;;;;5036166;28;19916;-80
2022/07/30 06:37:09;;;;;;;;;;;19.10;65.40;;;;;;5035949;28;20288;-79
2022/07/30 06:39:35;;;;;;;;;;;19.00;65.30;;;;;;5035096;28;19920;-79
2022/07/30 06:42:00;;;;;;;;;;;19.00;65.30;;;;;;5069555;28;19999;-79
2022/07/30 06:44:26;;;;;;;;;;;19.00;65.40;;;;;;5034660;28;19921;-79
2022/07/30 06:46:52;;;;;;;;;;;19.00;65.40;;;;;;5051464;28;19966;-79
2022/07/30 06:49:17;;;;;;;;;;;19.00;65.40;;;;;;5034917;28;20324;-81
2022/07/30 06:51:44;;;;;;;;;;;19.00;65.50;;;;;;5051208;28;19924;-82
2022/07/30 06:54:10;;;;;;;;;;;19.00;65.50;;;;;;5051167;28;19912;-81
2022/07/30 06:56:36;;;;;;;;;;;19.10;65.50;;;;;;5069154;28;19912;-81
2022/07/30 06:59:01;;;;;;;;;;;19.10;65.40;;;;;;5069138;28;19908;-82
2022/07/30 07:01:27;;;;;;;;;;;19.20;65.40;;;;;;5051158;28;19919;-82
2022/07/30 07:03:53;;;;;;;;;;;19.20;65.40;;;;;;5051008;28;19923;-81
2022/07/30 07:06:18;;;;;;;;;;;19.20;65.40;;;;;;5034534;28;19966;-82
2022/07/30 07:08:44;;;;;;;;;;;19.20;65.40;;;;;;5050960;28;20533;-81
2022/07/30 07:11:09;;;;;;;;;;;19.20;65.40;;;;;;5068993;28;19973;-82
2022/07/30 07:13:35;;;;;;;;;;;19.20;65.50;;;;;;5034454;28;20285;-82
2022/07/30 07:16:01;;;;;;;;;;;19.20;65.50;;;;;;5051103;28;19913;-82
2022/07/30 07:18:26;;;;;;;;;;;19.20;65.50;;;;;;5051133;28;19919;-82
2022/07/30 07:20:52;;;;;;;;;;;19.30;65.50;;;;;;5050854;28;19961;-82
2022/07/30 07:23:17;;;;;;;;;;;19.30;65.40;;;;;;5050610;28;20013;-81
2022/07/30 07:25:43;;;;;;;;;;;19.30;65.50;;;;;;5050873;28;19920;-81
2022/07/30 07:28:09;;;;;;;;;;;19.30;65.50;;;;;;5050608;28;19924;-81
2022/07/30 07:30:34;;;;;;;;;;;19.30;65.40;;;;;;5068843;28;19909;-82
2022/07/30 07:33:00;;;;;;;;;;;19.40;65.40;;;;;;5050586;28;19919;-83
2022/07/30 07:35:25;;;;;;;;;;;19.40;65.40;;;;;;5068880;28;19939;-80
2022/07/30 07:37:51;;;;;;;;;;;19.40;65.40;;;;;;5002299;28;1870609;-81
2022/07/30 07:40:17;;;;;;;;;;;19.40;65.40;;;;;;5069404;28;20246;-82
2022/07/30 07:42:42;;;;;;;;;;;19.50;65.50;;;;;;5034640;28;19917;-82
2022/07/30 07:45:08;;;;;;;;;;;19.50;65.50;;;;;;5034836;28;19919;-82
2022/07/30 07:47:44;;;;;;;;;;;19.60;65.60;;;;;;5051377;28;20280;-82
2022/07/30 07:50:10;;;;;;;;;;;19.70;65.50;;;;;;5069540;28;19913;-82
2022/07/30 07:52:35;;;;;;;;;;;19.80;65.50;;;;;;5051166;28;19915;-83
2022/07/30 07:55:01;;;;;;;;;;;19.90;65.50;;;;;;5069504;28;19913;-83
2022/07/30 07:57:26;;;;;;;;;;;19.90;65.40;;;;;;5034387;28;19912;-83
2022/07/30 07:59:54;;;;;;;;;;;19.90;65.30;;;;;;5051330;28;19919;-82
2022/07/30 08:02:19;;;;;;;;;;;19.90;65.30;;;;;;5050602;28;20279;-82
2022/07/30 08:04:45;;;;;;;;;;;19.80;65.40;;;;;;5049805;28;20012;-81
2022/07/30 08:07:11;;;;;;;;;;;19.80;65.50;;;;;;5050702;28;20261;-81
2022/07/30 08:09:36;;;;;;;;;;;19.70;65.50;;;;;;5068575;28;19912;-81
2022/07/30 08:12:02;;;;;;;;;;;19.70;65.50;;;;;;5050630;28;20381;-82
2022/07/30 08:14:28;;;;;;;;;;;19.70;65.50;;;;;;5034032;28;19912;-82
2022/07/30 08:16:54;;;;;;;;;;;19.70;65.50;;;;;;5050627;28;19925;-82
2022/07/30 08:19:19;;;;;;;;;;;19.70;65.50;;;;;;5050862;28;19952;-81
2022/07/30 08:21:45;;;;;;;;;;;19.70;65.50;;;;;;5050485;28;19916;-82
2022/07/30 08:24:10;;;;;;;;;;;19.70;65.50;;;;;;5050454;28;19920;-82
2022/07/30 08:26:36;;;;;;;;;;;19.80;65.60;;;;;;5034028;28;20436;-81
2022/07/30 08:29:02;;;;;;;;;;;19.80;65.60;;;;;;5033620;28;19943;-81
2022/07/30 08:31:27;;;;;;;;;;;19.90;65.70;;;;;;5050371;28;19916;-80
2022/07/30 08:33:53;;;;;;;;;;;20.00;65.80;;;;;;5050197;28;19920;-81
2022/07/30 08:36:18;;;;;;;;;;;20.10;65.70;;;;;;5068336;28;19912;-81
2022/07/30 08:38:44;;;;;;;;;;;20.10;65.60;;;;;;5049837;28;20380;-81
2022/07/30 08:41:10;;;;;;;;;;;20.20;65.50;;;;;;5050145;28;20392;-80
2022/07/30 08:43:36;;;;;;;;;;;20.20;65.50;;;;;;5049971;28;19913;-81
2022/07/30 08:46:03;;;;;;;;;;;20.30;65.60;;;;;;5049848;28;20265;-81
2022/07/30 08:48:29;;;;;;;;;;;20.40;65.50;;;;;;5067846;28;20361;-80
2022/07/30 08:50:55;;;;;;;;;;;20.40;65.40;;;;;;5033380;28;19991;-81
2022/07/30 08:53:21;;;;;;;;;;;20.40;65.40;;;;;;5049705;28;19915;-81
2022/07/30 08:55:46;;;;;;;;;;;20.50;65.50;;;;;;5050086;28;19912;-80
2022/07/30 08:58:25;;;;;;;;;;;20.60;65.50;;;;;;5049726;28;19938;-81
2022/07/30 09:00:50;;;;;;;;;;;20.70;65.60;;;;;;5068021;28;19909;-81
2022/07/30 09:03:16;;;;;;;;;;;21.00;65.60;;;;;;5049936;28;19962;-81
2022/07/30 09:05:42;;;;;;;;;;;21.20;65.40;;;;;;5049791;28;19920;-81
2022/07/30 09:08:07;;;;;;;;;;;21.20;65.20;;;;;;5067414;28;20022;-81
2022/07/30 09:10:33;;;;;;;;;;;21.20;65.10;;;;;;5068120;28;20355;-80
2022/07/30 09:12:58;;;;;;;;;;;21.10;65.20;;;;;;5032920;28;20268;-81
2022/07/30 09:15:24;;;;;;;;;;;21.00;65.20;;;;;;5032893;28;19974;-80
2022/07/30 09:17:53;;;;;;;;;;;21.00;65.30;;;;;;5049380;28;19923;-81
2022/07/30 09:20:19;;;;;;;;;;;20.90;65.40;;;;;;5049201;28;19920;-82
2022/07/30 09:22:52;;;;;;;;;;;21.00;65.40;;;;;;5067580;28;20242;-82
2022/07/30 09:25:36;;;;;;;;;;;20.90;65.40;;;;;;5049630;28;19963;-82
2022/07/30 09:28:02;;;;;;;;;;;20.90;65.40;;;;;;5049753;28;19913;-81
2022/07/30 09:30:42;;;;;;;;;;;20.90;65.40;;;;;;5049658;28;20007;-81
2022/07/30 09:33:08;;;;;;;;;;;20.80;65.70;;;;;;5049309;28;19909;-82
2022/07/30 09:35:33;;;;;;;;;;;20.80;65.60;;;;;;5049839;28;19916;-82
2022/07/30 09:37:59;;;;;;;;;;;20.90;65.80;;;;;;5032484;28;19925;-81
2022/07/30 09:40:25;;;;;;;;;;;21.00;65.90;;;;;;5049355;28;19916;-82
2022/07/30 09:43:04;;;;;;;;;;;21.10;65.80;;;;;;5049303;28;19970;-81
2022/07/30 09:45:30;;;;;;;;;;;21.20;65.70;;;;;;5050150;28;19919;-80
2022/07/30 09:47:55;;;;;;;;;;;21.30;65.70;;;;;;5052169;28;20287;-82
2022/07/30 09:50:23;;;;;;;;;;;21.30;65.70;;;;;;5049302;28;19920;-82
2022/07/30 09:52:49;;;;;;;;;;;21.30;65.70;;;;;;5049443;28;19932;-82
2022/07/30 09:55:29;;;;;;;;;;;21.30;65.60;;;;;;5049370;28;20351;-82
2022/07/30 09:57:56;;;;;;;;;;;21.30;65.70;;;;;;5067279;28;19965;-82
2022/07/30 10:00:23;;;;;;;;;;;21.40;65.80;;;;;;5049093;28;20503;-82
2022/07/30 10:02:50;;;;;;;;;;;21.50;65.80;;;;;;5049241;28;20026;-83
2022/07/30 10:05:18;;;;;;;;;;;21.50;65.80;;;;;;5067633;28;19909;-82
2022/07/30 10:07:56;;;;;;;;;;;21.70;65.80;;;;;;5067474;28;19920;-83
2022/07/30 10:10:24;;;;;;;;;;;21.80;65.70;;;;;;5049108;28;19908;-82
2022/07/30 10:12:51;;;;;;;;;;;21.70;65.50;;;;;;5049425;28;19993;-82
2022/07/30 10:15:18;;;;;;;;;;;21.60;65.50;;;;;;5067204;28;20419;-81
2022/07/30 10:17:44;;;;;;;;;;;21.50;65.60;;;;;;5049069;28;19912;-81
2022/07/30 10:20:10;;;;;;;;;;;21.50;66.20;;;;;;5067457;28;19934;-81
2022/07/30 10:22:37;;;;;;;;;;;21.50;65.80;;;;;;5067264;28;19965;-80
2022/07/30 10:25:02;;;;;;;;;;;21.60;65.90;;;;;;5032716;28;19916;-80
2022/07/30 10:27:28;;;;;;;;;;;21.60;65.80;;;;;;5034140;28;19970;-80
2022/07/30 10:29:54;;;;;;;;;;;21.60;65.70;;;;;;5052676;28;19917;-80
2022/07/30 10:32:20;;;;;;;;;;;21.60;65.70;;;;;;5052850;28;19958;-81
2022/07/30 10:34:46;;;;;;;;;;;21.50;65.80;;;;;;5035803;28;19916;-80
2022/07/30 10:37:14;;;;;;;;;;;21.50;65.90;;;;;;5070266;28;19958;-80
2022/07/30 10:40:02;;;;;;;;;;;21.40;65.90;;;;;;5070349;28;20369;-80
2022/07/30 10:42:46;;;;;;;;;;;21.50;65.90;;;;;;5055782;28;19979;-80
2022/07/30 10:45:22;;;;;;;;;;;21.50;65.90;;;;;;5052144;28;20004;-78
2022/07/30 10:47:49;;;;;;;;;;;21.50;65.90;;;;;;5051940;28;19991;-77
2022/07/30 10:50:14;;;;;;;;;;;21.60;65.90;;;;;;5069813;28;19962;-80
2022/07/30 10:52:49;;;;;;;;;;;21.70;66.00;;;;;;5070027;28;19912;-81
2022/07/30 10:55:16;;;;;;;;;;;21.70;65.90;;;;;;5052431;28;19958;-81
2022/07/30 10:58:05;;;;;;;;;;;21.80;65.90;;;;;;5070098;28;20280;-81
2022/07/30 11:00:34;;;;;;;;;;;21.80;65.90;;;;;;5059102;28;19909;-81
2022/07/30 11:03:11;;;;;;;;;;;21.90;65.90;;;;;;5069921;28;19915;-80
2022/07/30 11:05:37;;;;;;;;;;;21.90;65.80;;;;;;5069834;28;19919;-81
2022/07/30 11:08:21;;;;;;;;;;;22.00;65.90;;;;;;5035265;28;19917;-81
2022/07/30 11:10:47;;;;;;;;;;;22.00;65.80;;;;;;5069733;28;19909;-80
2022/07/30 11:13:12;;;;;;;;;;;22.10;65.80;;;;;;5070181;28;20350;-81
2022/07/30 11:15:50;;;;;;;;;;;22.00;65.80;;;;;;5051949;28;20000;-80
2022/07/30 11:18:16;;;;;;;;;;;22.10;65.90;;;;;;5069701;28;19908;-81
2022/07/30 11:20:41;;;;;;;;;;;22.20;65.90;;;;;;5051670;28;19913;-81
2022/07/30 11:23:09;;;;;;;;;;;22.30;65.80;;;;;;5051221;28;19927;-80
2022/07/30 11:25:34;;;;;;;;;;;22.20;65.70;;;;;;5051764;28;19981;-80
2022/07/30 11:28:00;;;;;;;;;;;22.30;65.90;;;;;;5051578;28;19955;-80
2022/07/30 11:30:28;;;;;;;;;;;22.40;65.80;;;;;;5051231;28;19967;-78
2022/07/30 11:32:55;;;;;;;;;;;22.40;65.70;;;;;;5051730;28;20014;-80
2022/07/30 11:35:24;;;;;;;;;;;22.40;65.70;;;;;;5069350;28;19940;-80
2022/07/30 11:37:56;;;;;;;;;;;22.30;65.70;;;;;;5034258;28;20304;-80
2022/07/30 11:40:23;;;;;;;;;;;22.40;65.90;;;;;;5068520;28;19960;-80
2022/07/30 11:42:49;;;;;;;;;;;22.50;65.90;;;;;;5050979;28;20352;-81
2022/07/30 11:45:14;;;;;;;;;;;22.60;65.80;;;;;;5034453;28;20274;-79
2022/07/30 11:47:44;;;;;;;;;;;22.70;65.80;;;;;;5050956;28;20206;-80
2022/07/30 11:50:17;;;;;;;;;;;22.70;65.70;;;;;;5069209;28;19913;-79
2022/07/30 11:52:42;;;;;;;;;;;22.80;65.80;;;;;;5050891;28;20456;-80
2022/07/30 11:55:08;;;;;;;;;;;22.70;65.70;;;;;;5051094;28;20003;-80
2022/07/30 11:57:43;;;;;;;;;;;22.70;65.70;;;;;;5068933;28;20352;-80
2022/07/30 12:00:08;;;;;;;;;;;22.70;65.80;;;;;;5050354;28;19995;-78
2022/07/30 12:02:34;;;;;;;;;;;22.70;65.80;;;;;;5050868;28;20383;-78
2022/07/30 12:04:59;;;;;;;;;;;22.70;65.70;;;;;;5068541;28;19920;-78
2022/07/30 12:07:25;;;;;;;;;;;22.60;65.70;;;;;;5050928;28;19938;-78
2022/07/30 12:09:51;;;;;;;;;;;22.50;65.70;;;;;;5034179;28;19912;-77
2022/07/30 12:12:22;;;;;;;;;;;22.50;65.90;;;;;;5050666;28;19913;-78
2022/07/30 12:14:47;;;;;;;;;;;22.40;65.90;;;;;;5033959;28;20273;-77
2022/07/30 12:17:13;;;;;;;;;;;22.40;65.90;;;;;;5033776;28;19921;-78
2022/07/30 12:19:45;;;;;;;;;;;22.40;66.00;;;;;;5050164;28;20430;-78
2022/07/30 12:22:11;;;;;;;;;;;22.40;66.00;;;;;;5049932;28;20353;-78
2022/07/30 12:24:37;;;;;;;;;;;22.60;66.10;;;;;;5050239;28;19919;-78
2022/07/30 12:27:03;;;;;;;;;;;22.80;66.20;;;;;;5033979;28;20128;-78
2022/07/30 12:29:30;;;;;;;;;;;23.10;66.20;;;;;;5050015;28;19909;-78
2022/07/30 12:31:56;;;;;;;;;;;23.40;66.10;;;;;;5067851;28;19953;-78
2022/07/30 12:34:23;;;;;;;;;;;23.90;66.00;;;;;;5067507;28;20285;-78
2022/07/30 12:36:49;;;;;;;;;;;24.20;65.60;;;;;;5068093;28;19909;-78
2022/07/30 12:39:19;;;;;;;;;;;24.40;65.30;;;;;;5049769;28;19928;-78
2022/07/30 12:41:45;;;;;;;;;;;24.40;65.30;;;;;;5067884;28;19909;-77
2022/07/30 12:44:31;;;;;;;;;;;24.30;65.20;;;;;;5050099;28;20506;-78
2022/07/30 12:46:57;;;;;;;;;;;24.20;65.10;;;;;;5036222;28;19914;-77
2022/07/30 12:49:27;;;;;;;;;;;24.00;65.80;;;;;;5050326;28;19999;-78
2022/07/30 12:51:53;;;;;;;;;;;23.90;65.50;;;;;;5049560;28;19912;-78
2022/07/30 12:54:18;;;;;;;;;;;24.00;65.80;;;;;;5050233;28;20462;-78
2022/07/30 12:57:04;;;;;;;;;;;24.10;65.80;;;;;;5067754;28;19985;-78
2022/07/30 12:59:30;;;;;;;;;;;24.20;65.60;;;;;;5049398;28;19958;-78
2022/07/30 13:01:56;;;;;;;;;;;24.30;65.70;;;;;;5049751;28;19962;-78
2022/07/30 13:04:22;;;;;;;;;;;24.40;65.70;;;;;;5050200;28;20294;-77
2022/07/30 13:07:06;;;;;;;;;;;24.60;65.70;;;;;;5049972;28;19998;-77
2022/07/30 13:09:32;;;;;;;;;;;24.80;65.70;;;;;;5050979;28;19912;-77
2022/07/30 13:11:58;;;;;;;;;;;25.00;65.60;;;;;;5068406;28;19913;-78
2022/07/30 13:14:23;;;;;;;;;;;25.20;65.60;;;;;;5049644;28;19917;-77
2022/07/30 13:16:49;;;;;;;;;;;25.30;65.40;;;;;;5067592;28;19944;-77
2022/07/30 13:19:15;;;;;;;;;;;25.30;65.30;;;;;;5049313;28;20318;-77
2022/07/30 13:21:42;;;;;;;;;;;25.10;65.10;;;;;;5049071;28;20003;-77
2022/07/30 13:24:08;;;;;;;;;;;24.90;65.10;;;;;;5049118;28;19923;-78
2022/07/30 13:26:35;;;;;;;;;;;24.80;65.50;;;;;;5049322;28;20269;-77
2022/07/30 13:29:00;;;;;;;;;;;24.80;65.70;;;;;;5067272;28;19908;-78
2022/07/30 13:31:26;;;;;;;;;;;25.00;65.80;;;;;;5067069;28;19913;-78
2022/07/30 13:33:52;;;;;;;;;;;25.20;65.70;;;;;;5032451;28;20269;-79
2022/07/30 13:36:18;;;;;;;;;;;25.40;65.80;;;;;;5049168;28;20004;-78
2022/07/30 13:38:47;;;;;;;;;;;25.60;65.80;;;;;;5049384;28;20466;-78
2022/07/30 13:41:12;;;;;;;;;;;25.70;65.80;;;;;;5049584;28;20489;-79
2022/07/30 13:43:38;;;;;;;;;;;26.00;66.00;;;;;;5050376;28;20007;-78
2022/07/30 13:46:04;;;;;;;;;;;26.10;65.80;;;;;;5048974;28;19959;-78
2022/07/30 13:48:30;;;;;;;;;;;26.20;65.60;;;;;;5032524;28;20368;-78
2022/07/30 13:50:55;;;;;;;;;;;26.20;65.70;;;;;;5067077;28;19917;-78
2022/07/30 13:53:21;;;;;;;;;;;26.50;66.10;;;;;;5032410;28;19955;-78
2022/07/30 13:55:47;;;;;;;;;;;26.60;65.80;;;;;;5049416;28;20320;-78
2022/07/30 13:58:12;;;;;;;;;;;26.50;65.40;;;;;;5066870;28;20380;-78
2022/07/30 14:00:39;;;;;;;;;;;26.20;65.40;;;;;;5048826;28;20384;-78
2022/07/30 14:03:06;;;;;;;;;;;26.10;65.70;;;;;;5051717;28;19908;-78
2022/07/30 14:05:32;;;;;;;;;;;26.10;65.90;;;;;;5070905;28;19908;-78
2022/07/30 14:07:58;;;;;;;;;;;26.20;66.10;;;;;;5035956;28;19923;-78
2022/07/30 14:10:23;;;;;;;;;;;26.40;66.10;;;;;;5070643;28;19920;-78
2022/07/30 14:12:50;;;;;;;;;;;26.60;66.00;;;;;;5036205;28;19912;-78
2022/07/30 14:15:15;;;;;;;;;;;26.50;65.80;;;;;;5052431;28;20368;-78
2022/07/30 14:17:41;;;;;;;;;;;26.50;65.80;;;;;;5035939;28;19912;-77